sensor_id;sensor_type;location;lat;lon;timestamp;P1;durP1;ratioP1;P2;durP2;ratioP2
12155;SDS011;6141;49.092;8.516;2023-08-12T00:01:09;3.27;;;2.97;;
12155;SDS011;6141;49.092;8.516;2023-08-12T00:03:38;3.63;;;3.27;;
12155;SDS011;6141;49.092;8.516;2023-08-12T00:06:06;4.23;;;3.83;;
12155;SDS011;6141;49.092;8.516;2023-08-12T00:08:34;4.43;;;3.43;;
12155;SDS011;6141;49.092;8.516;2023-08-12T00:11:02;3.97;;;3.53;;
12155;SDS011;6141;49.092;8.516;2023-08-12T00:13:31;6.27;;;3.70;;
12155;SDS011;6141;49.092;8.516;2023-08-12T00:16:00;5.00;;;3.80;;
12155;SDS011;6141;49.092;8.516;2023-08-12T00:18:28;5.83;;;3.70;;
12155;SDS011;6141;49.092;8.516;2023-08-12T00:20:56;3.90;;;3.50;;
12155;SDS011;6141;49.092;8.516;2023-08-12T00:23:25;5.20;;;3.57;;
12155;SDS011;6141;49.092;8.516;2023-08-12T00:25:57;4.27;;;2.90;;
12155;SDS011;6141;49.092;8.516;2023-08-12T00:28:25;5.07;;;3.40;;
12155;SDS011;6141;49.092;8.516;2023-08-12T00:30:54;5.23;;;4.00;;
12155;SDS011;6141;49.092;8.516;2023-08-12T00:33:22;9.23;;;3.40;;
12155;SDS011;6141;49.092;8.516;2023-08-12T00:35:51;4.53;;;3.67;;
12155;SDS011;6141;49.092;8.516;2023-08-12T00:38:19;6.10;;;3.70;;
12155;SDS011;6141;49.092;8.516;2023-08-12T00:40:47;4.30;;;3.17;;
12155;SDS011;6141;49.092;8.516;2023-08-12T00:43:15;4.37;;;3.97;;
12155;SDS011;6141;49.092;8.516;2023-08-12T00:45:43;4.80;;;3.83;;
12155;SDS011;6141;49.092;8.516;2023-08-12T00:48:13;3.80;;;3.20;;
12155;SDS011;6141;49.092;8.516;2023-08-12T00:50:43;6.03;;;3.77;;
12155;SDS011;6141;49.092;8.516;2023-08-12T00:53:12;4.43;;;3.70;;
12155;SDS011;6141;49.092;8.516;2023-08-12T00:55:42;4.07;;;3.57;;
12155;SDS011;6141;49.092;8.516;2023-08-12T00:58:10;5.73;;;3.37;;
12155;SDS011;6141;49.092;8.516;2023-08-12T01:00:40;5.33;;;3.77;;
12155;SDS011;6141;49.092;8.516;2023-08-12T01:03:08;6.70;;;3.83;;
12155;SDS011;6141;49.092;8.516;2023-08-12T01:05:39;5.43;;;3.50;;
12155;SDS011;6141;49.092;8.516;2023-08-12T01:08:09;4.30;;;3.30;;
12155;SDS011;6141;49.092;8.516;2023-08-12T01:10:37;4.90;;;3.20;;
12155;SDS011;6141;49.092;8.516;2023-08-12T01:13:14;4.50;;;3.60;;
12155;SDS011;6141;49.092;8.516;2023-08-12T01:15:51;6.00;;;3.30;;
12155;SDS011;6141;49.092;8.516;2023-08-12T01:18:22;5.97;;;3.40;;
12155;SDS011;6141;49.092;8.516;2023-08-12T01:20:53;5.60;;;3.50;;
12155;SDS011;6141;49.092;8.516;2023-08-12T01:23:24;5.70;;;3.33;;
12155;SDS011;6141;49.092;8.516;2023-08-12T01:25:52;4.30;;;3.77;;
12155;SDS011;6141;49.092;8.516;2023-08-12T01:28:20;3.80;;;3.40;;
12155;SDS011;6141;49.092;8.516;2023-08-12T01:30:51;4.23;;;3.83;;
12155;SDS011;6141;49.092;8.516;2023-08-12T01:33:26;6.80;;;3.47;;
12155;SDS011;6141;49.092;8.516;2023-08-12T01:36:00;7.27;;;3.50;;
12155;SDS011;6141;49.092;8.516;2023-08-12T01:38:39;4.27;;;3.83;;
12155;SDS011;6141;49.092;8.516;2023-08-12T01:41:09;3.50;;;3.20;;
12155;SDS011;6141;49.092;8.516;2023-08-12T01:43:40;4.90;;;3.37;;
12155;SDS011;6141;49.092;8.516;2023-08-12T01:46:09;5.83;;;3.50;;
12155;SDS011;6141;49.092;8.516;2023-08-12T01:48:37;8.03;;;3.57;;
12155;SDS011;6141;49.092;8.516;2023-08-12T01:51:06;5.20;;;4.00;;
12155;SDS011;6141;49.092;8.516;2023-08-12T01:53:34;4.13;;;3.73;;
12155;SDS011;6141;49.092;8.516;2023-08-12T01:56:03;4.57;;;3.97;;
12155;SDS011;6141;49.092;8.516;2023-08-12T01:58:31;5.67;;;3.93;;
12155;SDS011;6141;49.092;8.516;2023-08-12T02:00:59;6.47;;;3.80;;
12155;SDS011;6141;49.092;8.516;2023-08-12T02:03:29;4.77;;;4.17;;
12155;SDS011;6141;49.092;8.516;2023-08-12T02:05:57;4.70;;;3.60;;
12155;SDS011;6141;49.092;8.516;2023-08-12T02:08:25;4.00;;;3.60;;
12155;SDS011;6141;49.092;8.516;2023-08-12T02:10:53;6.03;;;3.90;;
12155;SDS011;6141;49.092;8.516;2023-08-12T02:13:22;4.90;;;4.03;;
12155;SDS011;6141;49.092;8.516;2023-08-12T02:15:50;5.77;;;3.70;;
12155;SDS011;6141;49.092;8.516;2023-08-12T02:18:21;4.53;;;3.63;;
12155;SDS011;6141;49.092;8.516;2023-08-12T02:20:49;7.73;;;3.97;;
12155;SDS011;6141;49.092;8.516;2023-08-12T02:23:17;5.30;;;4.10;;
12155;SDS011;6141;49.092;8.516;2023-08-12T02:25:46;5.10;;;4.03;;
12155;SDS011;6141;49.092;8.516;2023-08-12T02:28:14;5.47;;;3.90;;
12155;SDS011;6141;49.092;8.516;2023-08-12T02:30:44;5.90;;;3.93;;
12155;SDS011;6141;49.092;8.516;2023-08-12T02:33:12;4.80;;;4.30;;
12155;SDS011;6141;49.092;8.516;2023-08-12T02:35:40;4.47;;;3.67;;
12155;SDS011;6141;49.092;8.516;2023-08-12T02:38:09;4.53;;;4.13;;
12155;SDS011;6141;49.092;8.516;2023-08-12T02:40:37;5.17;;;3.90;;
12155;SDS011;6141;49.092;8.516;2023-08-12T02:43:05;6.20;;;4.00;;
12155;SDS011;6141;49.092;8.516;2023-08-12T02:45:33;6.63;;;3.97;;
12155;SDS011;6141;49.092;8.516;2023-08-12T02:48:03;6.37;;;4.10;;
12155;SDS011;6141;49.092;8.516;2023-08-12T02:50:31;4.13;;;3.73;;
12155;SDS011;6141;49.092;8.516;2023-08-12T02:52:59;4.23;;;3.83;;
12155;SDS011;6141;49.092;8.516;2023-08-12T02:55:28;5.17;;;3.97;;
12155;SDS011;6141;49.092;8.516;2023-08-12T02:57:58;5.17;;;4.50;;
12155;SDS011;6141;49.092;8.516;2023-08-12T03:00:27;6.43;;;4.20;;
12155;SDS011;6141;49.092;8.516;2023-08-12T03:02:55;4.53;;;3.70;;
12155;SDS011;6141;49.092;8.516;2023-08-12T03:05:25;4.27;;;3.87;;
12155;SDS011;6141;49.092;8.516;2023-08-12T03:07:53;4.77;;;4.00;;
12155;SDS011;6141;49.092;8.516;2023-08-12T03:10:21;5.70;;;4.40;;
12155;SDS011;6141;49.092;8.516;2023-08-12T03:12:49;4.33;;;3.90;;
12155;SDS011;6141;49.092;8.516;2023-08-12T03:15:19;4.23;;;3.87;;
12155;SDS011;6141;49.092;8.516;2023-08-12T03:17:47;4.30;;;3.63;;
12155;SDS011;6141;49.092;8.516;2023-08-12T03:20:16;5.07;;;3.63;;
12155;SDS011;6141;49.092;8.516;2023-08-12T03:22:46;4.47;;;3.93;;
12155;SDS011;6141;49.092;8.516;2023-08-12T03:25:14;4.80;;;3.77;;
12155;SDS011;6141;49.092;8.516;2023-08-12T03:27:44;4.10;;;3.70;;
12155;SDS011;6141;49.092;8.516;2023-08-12T03:30:13;4.40;;;3.87;;
12155;SDS011;6141;49.092;8.516;2023-08-12T03:32:43;7.00;;;3.93;;
12155;SDS011;6141;49.092;8.516;2023-08-12T03:35:11;5.80;;;3.90;;
12155;SDS011;6141;49.092;8.516;2023-08-12T03:37:39;4.47;;;3.97;;
12155;SDS011;6141;49.092;8.516;2023-08-12T03:40:09;4.33;;;3.80;;
12155;SDS011;6141;49.092;8.516;2023-08-12T03:42:39;5.03;;;3.70;;
12155;SDS011;6141;49.092;8.516;2023-08-12T03:45:07;4.93;;;4.20;;
12155;SDS011;6141;49.092;8.516;2023-08-12T03:47:36;6.00;;;4.20;;
12155;SDS011;6141;49.092;8.516;2023-08-12T03:50:05;4.37;;;3.97;;
12155;SDS011;6141;49.092;8.516;2023-08-12T03:52:34;5.63;;;3.77;;
12155;SDS011;6141;49.092;8.516;2023-08-12T03:55:02;5.40;;;3.90;;
12155;SDS011;6141;49.092;8.516;2023-08-12T03:57:33;4.23;;;3.83;;
12155;SDS011;6141;49.092;8.516;2023-08-12T04:00:01;6.47;;;4.07;;
12155;SDS011;6141;49.092;8.516;2023-08-12T04:02:40;4.10;;;3.70;;
12155;SDS011;6141;49.092;8.516;2023-08-12T04:05:09;7.27;;;3.77;;
12155;SDS011;6141;49.092;8.516;2023-08-12T04:07:37;4.93;;;4.43;;
12155;SDS011;6141;49.092;8.516;2023-08-12T04:10:05;3.93;;;3.63;;
12155;SDS011;6141;49.092;8.516;2023-08-12T04:12:36;4.60;;;3.67;;
12155;SDS011;6141;49.092;8.516;2023-08-12T04:17:41;4.70;;;4.20;;
12155;SDS011;6141;49.092;8.516;2023-08-12T04:20:10;5.43;;;4.40;;
12155;SDS011;6141;49.092;8.516;2023-08-12T04:22:38;6.23;;;4.90;;
12155;SDS011;6141;49.092;8.516;2023-08-12T04:25:07;5.47;;;4.47;;
12155;SDS011;6141;49.092;8.516;2023-08-12T04:27:36;5.27;;;4.10;;
12155;SDS011;6141;49.092;8.516;2023-08-12T04:30:05;3.93;;;3.57;;
12155;SDS011;6141;49.092;8.516;2023-08-12T04:32:34;4.53;;;4.13;;
12155;SDS011;6141;49.092;8.516;2023-08-12T04:35:03;4.53;;;3.93;;
12155;SDS011;6141;49.092;8.516;2023-08-12T04:37:35;6.30;;;4.30;;
12155;SDS011;6141;49.092;8.516;2023-08-12T04:40:05;5.00;;;4.10;;
12155;SDS011;6141;49.092;8.516;2023-08-12T04:42:35;5.33;;;4.30;;
12155;SDS011;6141;49.092;8.516;2023-08-12T04:45:07;4.90;;;4.40;;
12155;SDS011;6141;49.092;8.516;2023-08-12T04:47:35;4.43;;;3.90;;
12155;SDS011;6141;49.092;8.516;2023-08-12T04:50:04;4.57;;;3.70;;
12155;SDS011;6141;49.092;8.516;2023-08-12T04:52:33;5.73;;;4.23;;
12155;SDS011;6141;49.092;8.516;2023-08-12T04:55:01;6.57;;;4.07;;
12155;SDS011;6141;49.092;8.516;2023-08-12T04:57:31;4.60;;;4.20;;
12155;SDS011;6141;49.092;8.516;2023-08-12T05:00:00;5.07;;;4.57;;
12155;SDS011;6141;49.092;8.516;2023-08-12T05:02:29;6.30;;;4.47;;
12155;SDS011;6141;49.092;8.516;2023-08-12T05:04:57;5.80;;;3.97;;
12155;SDS011;6141;49.092;8.516;2023-08-12T05:07:26;4.57;;;4.17;;
12155;SDS011;6141;49.092;8.516;2023-08-12T05:09:55;5.83;;;4.43;;
12155;SDS011;6141;49.092;8.516;2023-08-12T05:12:23;4.70;;;4.20;;
12155;SDS011;6141;49.092;8.516;2023-08-12T05:14:51;4.90;;;4.40;;
12155;SDS011;6141;49.092;8.516;2023-08-12T05:17:21;5.40;;;4.90;;
12155;SDS011;6141;49.092;8.516;2023-08-12T05:19:49;4.67;;;4.27;;
12155;SDS011;6141;49.092;8.516;2023-08-12T05:22:18;4.60;;;4.20;;
12155;SDS011;6141;49.092;8.516;2023-08-12T05:24:46;4.60;;;4.20;;
12155;SDS011;6141;49.092;8.516;2023-08-12T05:27:14;6.20;;;4.53;;
12155;SDS011;6141;49.092;8.516;2023-08-12T05:29:42;4.70;;;4.30;;
12155;SDS011;6141;49.092;8.516;2023-08-12T05:32:10;5.67;;;4.67;;
12155;SDS011;6141;49.092;8.516;2023-08-12T05:34:40;4.93;;;4.50;;
12155;SDS011;6141;49.092;8.516;2023-08-12T05:37:08;5.93;;;4.80;;
12155;SDS011;6141;49.092;8.516;2023-08-12T05:39:36;6.70;;;4.50;;
12155;SDS011;6141;49.092;8.516;2023-08-12T05:42:05;4.87;;;4.30;;
12155;SDS011;6141;49.092;8.516;2023-08-12T05:44:33;5.07;;;3.93;;
12155;SDS011;6141;49.092;8.516;2023-08-12T05:47:01;7.37;;;4.40;;
12155;SDS011;6141;49.092;8.516;2023-08-12T05:49:29;4.73;;;4.27;;
12155;SDS011;6141;49.092;8.516;2023-08-12T05:51:58;4.63;;;4.23;;
12155;SDS011;6141;49.092;8.516;2023-08-12T05:54:27;4.80;;;4.40;;
12155;SDS011;6141;49.092;8.516;2023-08-12T05:56:55;6.13;;;4.63;;
12155;SDS011;6141;49.092;8.516;2023-08-12T05:59:23;4.83;;;4.27;;
12155;SDS011;6141;49.092;8.516;2023-08-12T06:01:51;4.60;;;4.20;;
12155;SDS011;6141;49.092;8.516;2023-08-12T06:04:19;4.90;;;4.50;;
12155;SDS011;6141;49.092;8.516;2023-08-12T06:06:47;6.27;;;4.53;;
12155;SDS011;6141;49.092;8.516;2023-08-12T06:09:16;5.20;;;4.20;;
12155;SDS011;6141;49.092;8.516;2023-08-12T06:11:44;5.70;;;4.63;;
12155;SDS011;6141;49.092;8.516;2023-08-12T06:14:12;6.87;;;4.47;;
12155;SDS011;6141;49.092;8.516;2023-08-12T06:16:41;5.10;;;4.60;;
12155;SDS011;6141;49.092;8.516;2023-08-12T06:19:09;5.43;;;4.27;;
12155;SDS011;6141;49.092;8.516;2023-08-12T06:21:37;6.47;;;5.13;;
12155;SDS011;6141;49.092;8.516;2023-08-12T06:24:06;5.80;;;4.60;;
12155;SDS011;6141;49.092;8.516;2023-08-12T06:26:35;7.43;;;4.67;;
12155;SDS011;6141;49.092;8.516;2023-08-12T06:29:03;4.97;;;4.47;;
12155;SDS011;6141;49.092;8.516;2023-08-12T06:31:32;7.80;;;4.97;;
12155;SDS011;6141;49.092;8.516;2023-08-12T06:34:00;4.80;;;4.40;;
12155;SDS011;6141;49.092;8.516;2023-08-12T06:36:28;5.97;;;4.73;;
12155;SDS011;6141;49.092;8.516;2023-08-12T06:38:56;4.70;;;4.30;;
12155;SDS011;6141;49.092;8.516;2023-08-12T06:41:24;5.27;;;4.30;;
12155;SDS011;6141;49.092;8.516;2023-08-12T06:43:54;5.50;;;4.73;;
12155;SDS011;6141;49.092;8.516;2023-08-12T06:46:22;5.60;;;4.70;;
12155;SDS011;6141;49.092;8.516;2023-08-12T06:48:50;6.10;;;4.80;;
12155;SDS011;6141;49.092;8.516;2023-08-12T06:51:18;4.90;;;4.40;;
12155;SDS011;6141;49.092;8.516;2023-08-12T06:53:46;4.87;;;4.37;;
12155;SDS011;6141;49.092;8.516;2023-08-12T06:56:14;6.33;;;4.20;;
12155;SDS011;6141;49.092;8.516;2023-08-12T06:58:43;9.33;;;4.47;;
12155;SDS011;6141;49.092;8.516;2023-08-12T07:01:13;6.03;;;4.33;;
12155;SDS011;6141;49.092;8.516;2023-08-12T07:03:41;4.47;;;4.07;;
12155;SDS011;6141;49.092;8.516;2023-08-12T07:06:09;5.27;;;4.20;;
12155;SDS011;6141;49.092;8.516;2023-08-12T07:08:37;5.93;;;4.40;;
12155;SDS011;6141;49.092;8.516;2023-08-12T07:11:05;4.60;;;4.20;;
12155;SDS011;6141;49.092;8.516;2023-08-12T07:13:33;6.07;;;4.47;;
12155;SDS011;6141;49.092;8.516;2023-08-12T07:16:01;5.70;;;4.50;;
12155;SDS011;6141;49.092;8.516;2023-08-12T07:18:31;5.67;;;4.50;;
12155;SDS011;6141;49.092;8.516;2023-08-12T07:20:59;7.53;;;4.57;;
12155;SDS011;6141;49.092;8.516;2023-08-12T07:23:27;4.60;;;4.20;;
12155;SDS011;6141;49.092;8.516;2023-08-12T07:25:55;6.43;;;4.23;;
12155;SDS011;6141;49.092;8.516;2023-08-12T07:28:23;8.43;;;4.80;;
12155;SDS011;6141;49.092;8.516;2023-08-12T07:30:51;6.70;;;4.70;;
12155;SDS011;6141;49.092;8.516;2023-08-12T07:33:20;6.63;;;4.40;;
12155;SDS011;6141;49.092;8.516;2023-08-12T07:35:49;4.93;;;4.40;;
12155;SDS011;6141;49.092;8.516;2023-08-12T07:38:17;6.03;;;4.40;;
12155;SDS011;6141;49.092;8.516;2023-08-12T07:40:45;6.23;;;5.00;;
12155;SDS011;6141;49.092;8.516;2023-08-12T07:43:13;5.60;;;5.03;;
12155;SDS011;6141;49.092;8.516;2023-08-12T07:45:41;6.23;;;4.27;;
12155;SDS011;6141;49.092;8.516;2023-08-12T07:48:16;5.37;;;4.17;;
12155;SDS011;6141;49.092;8.516;2023-08-12T07:50:44;5.10;;;4.40;;
12155;SDS011;6141;49.092;8.516;2023-08-12T07:53:16;5.00;;;4.30;;
12155;SDS011;6141;49.092;8.516;2023-08-12T07:55:44;6.53;;;4.10;;
12155;SDS011;6141;49.092;8.516;2023-08-12T07:58:12;5.20;;;4.13;;
12155;SDS011;6141;49.092;8.516;2023-08-12T08:00:41;5.03;;;4.30;;
12155;SDS011;6141;49.092;8.516;2023-08-12T08:03:09;4.40;;;4.00;;
12155;SDS011;6141;49.092;8.516;2023-08-12T08:05:39;6.97;;;4.63;;
12155;SDS011;6141;49.092;8.516;2023-08-12T08:08:08;5.17;;;4.40;;
12155;SDS011;6141;49.092;8.516;2023-08-12T08:10:37;5.40;;;4.20;;
12155;SDS011;6141;49.092;8.516;2023-08-12T08:13:06;4.90;;;4.10;;
12155;SDS011;6141;49.092;8.516;2023-08-12T08:15:34;7.27;;;3.97;;
12155;SDS011;6141;49.092;8.516;2023-08-12T08:18:02;7.40;;;4.27;;
12155;SDS011;6141;49.092;8.516;2023-08-12T08:20:31;6.47;;;4.30;;
12155;SDS011;6141;49.092;8.516;2023-08-12T08:22:59;6.10;;;4.27;;
12155;SDS011;6141;49.092;8.516;2023-08-12T08:25:29;6.57;;;4.03;;
12155;SDS011;6141;49.092;8.516;2023-08-12T08:27:59;4.60;;;4.10;;
12155;SDS011;6141;49.092;8.516;2023-08-12T08:30:27;5.10;;;3.90;;
12155;SDS011;6141;49.092;8.516;2023-08-12T08:32:56;5.97;;;4.37;;
12155;SDS011;6141;49.092;8.516;2023-08-12T08:35:24;7.53;;;3.97;;
12155;SDS011;6141;49.092;8.516;2023-08-12T08:37:52;5.47;;;4.13;;
12155;SDS011;6141;49.092;8.516;2023-08-12T08:40:21;5.47;;;4.10;;
12155;SDS011;6141;49.092;8.516;2023-08-12T08:42:50;8.13;;;4.80;;
12155;SDS011;6141;49.092;8.516;2023-08-12T08:45:21;5.67;;;4.60;;
12155;SDS011;6141;49.092;8.516;2023-08-12T08:47:50;7.00;;;3.70;;
12155;SDS011;6141;49.092;8.516;2023-08-12T08:50:19;4.33;;;3.90;;
12155;SDS011;6141;49.092;8.516;2023-08-12T08:52:48;4.47;;;3.90;;
12155;SDS011;6141;49.092;8.516;2023-08-12T08:55:18;7.40;;;4.00;;
12155;SDS011;6141;49.092;8.516;2023-08-12T08:57:48;4.80;;;3.93;;
12155;SDS011;6141;49.092;8.516;2023-08-12T09:00:17;5.77;;;4.17;;
12155;SDS011;6141;49.092;8.516;2023-08-12T09:02:47;5.80;;;4.30;;
12155;SDS011;6141;49.092;8.516;2023-08-12T09:05:16;4.50;;;3.87;;
12155;SDS011;6141;49.092;8.516;2023-08-12T09:07:47;5.80;;;3.97;;
12155;SDS011;6141;49.092;8.516;2023-08-12T09:10:16;4.90;;;3.97;;
12155;SDS011;6141;49.092;8.516;2023-08-12T09:12:47;4.63;;;4.07;;
12155;SDS011;6141;49.092;8.516;2023-08-12T09:15:19;4.60;;;3.87;;
12155;SDS011;6141;49.092;8.516;2023-08-12T09:17:48;4.43;;;4.03;;
12155;SDS011;6141;49.092;8.516;2023-08-12T09:20:16;5.60;;;3.83;;
12155;SDS011;6141;49.092;8.516;2023-08-12T09:22:44;4.70;;;3.80;;
12155;SDS011;6141;49.092;8.516;2023-08-12T09:25:12;5.20;;;3.80;;
12155;SDS011;6141;49.092;8.516;2023-08-12T09:27:40;4.00;;;3.60;;
12155;SDS011;6141;49.092;8.516;2023-08-12T09:30:08;11.57;;;3.80;;
12155;SDS011;6141;49.092;8.516;2023-08-12T09:32:39;4.90;;;3.53;;
12155;SDS011;6141;49.092;8.516;2023-08-12T09:35:15;5.90;;;4.37;;
12155;SDS011;6141;49.092;8.516;2023-08-12T09:37:44;5.07;;;3.75;;
12155;SDS011;6141;49.092;8.516;2023-08-12T09:40:12;10.00;;;3.67;;
12155;SDS011;6141;49.092;8.516;2023-08-12T09:42:44;5.77;;;4.03;;
12155;SDS011;6141;49.092;8.516;2023-08-12T09:45:13;6.53;;;4.20;;
12155;SDS011;6141;49.092;8.516;2023-08-12T09:47:42;4.38;;;3.97;;
12155;SDS011;6141;49.092;8.516;2023-08-12T09:50:12;4.97;;;3.87;;
12155;SDS011;6141;49.092;8.516;2023-08-12T09:52:40;5.60;;;3.63;;
12155;SDS011;6141;49.092;8.516;2023-08-12T09:55:09;4.30;;;3.90;;
12155;SDS011;6141;49.092;8.516;2023-08-12T09:57:38;5.07;;;3.80;;
12155;SDS011;6141;49.092;8.516;2023-08-12T10:00:10;6.67;;;3.87;;
12155;SDS011;6141;49.092;8.516;2023-08-12T10:02:43;4.27;;;3.87;;
12155;SDS011;6141;49.092;8.516;2023-08-12T10:05:16;5.70;;;3.67;;
12155;SDS011;6141;49.092;8.516;2023-08-12T10:07:47;4.68;;;4.20;;
12155;SDS011;6141;49.092;8.516;2023-08-12T10:10:16;6.20;;;3.90;;
12155;SDS011;6141;49.092;8.516;2023-08-12T10:12:44;6.53;;;4.40;;
12155;SDS011;6141;49.092;8.516;2023-08-12T10:15:13;5.53;;;4.05;;
12155;SDS011;6141;49.092;8.516;2023-08-12T10:17:41;5.40;;;3.80;;
12155;SDS011;6141;49.092;8.516;2023-08-12T10:20:14;6.97;;;4.25;;
12155;SDS011;6141;49.092;8.516;2023-08-12T10:22:48;5.43;;;3.80;;
12155;SDS011;6141;49.092;8.516;2023-08-12T10:25:17;4.30;;;3.90;;
12155;SDS011;6141;49.092;8.516;2023-08-12T10:27:48;4.28;;;3.65;;
12155;SDS011;6141;49.092;8.516;2023-08-12T10:30:16;5.55;;;3.80;;
12155;SDS011;6141;49.092;8.516;2023-08-12T10:32:44;4.07;;;3.55;;
12155;SDS011;6141;49.092;8.516;2023-08-12T10:35:15;6.75;;;3.50;;
12155;SDS011;6141;49.092;8.516;2023-08-12T10:37:45;6.47;;;3.47;;
12155;SDS011;6141;49.092;8.516;2023-08-12T10:40:20;6.73;;;3.63;;
12155;SDS011;6141;49.092;8.516;2023-08-12T10:42:49;3.93;;;3.53;;
12155;SDS011;6141;49.092;8.516;2023-08-12T10:45:18;4.32;;;3.55;;
12155;SDS011;6141;49.092;8.516;2023-08-12T10:47:51;4.70;;;3.53;;
12155;SDS011;6141;49.092;8.516;2023-08-12T10:50:39;5.15;;;3.92;;
12155;SDS011;6141;49.092;8.516;2023-08-12T10:53:24;4.43;;;3.30;;
12155;SDS011;6141;49.092;8.516;2023-08-12T10:55:57;6.20;;;3.47;;
12155;SDS011;6141;49.092;8.516;2023-08-12T10:58:27;4.33;;;3.63;;
12155;SDS011;6141;49.092;8.516;2023-08-12T11:00:56;8.00;;;3.70;;
12155;SDS011;6141;49.092;8.516;2023-08-12T11:03:25;5.17;;;3.87;;
12155;SDS011;6141;49.092;8.516;2023-08-12T11:05:55;4.87;;;3.57;;
12155;SDS011;6141;49.092;8.516;2023-08-12T11:08:26;4.07;;;3.40;;
12155;SDS011;6141;49.092;8.516;2023-08-12T11:10:55;3.90;;;3.17;;
12155;SDS011;6141;49.092;8.516;2023-08-12T11:13:26;7.57;;;3.67;;
12155;SDS011;6141;49.092;8.516;2023-08-12T11:16:05;4.93;;;3.27;;
12155;SDS011;6141;49.092;8.516;2023-08-12T11:18:35;7.27;;;4.20;;
12155;SDS011;6141;49.092;8.516;2023-08-12T11:21:04;5.53;;;4.13;;
12155;SDS011;6141;49.092;8.516;2023-08-12T11:23:33;5.00;;;3.70;;
12155;SDS011;6141;49.092;8.516;2023-08-12T11:26:02;5.93;;;4.40;;
12155;SDS011;6141;49.092;8.516;2023-08-12T11:28:31;5.33;;;4.07;;
12155;SDS011;6141;49.092;8.516;2023-08-12T11:30:59;6.27;;;4.40;;
12155;SDS011;6141;49.092;8.516;2023-08-12T11:33:28;5.47;;;4.33;;
12155;SDS011;6141;49.092;8.516;2023-08-12T11:35:57;6.70;;;4.40;;
12155;SDS011;6141;49.092;8.516;2023-08-12T11:38:28;5.13;;;4.17;;
12155;SDS011;6141;49.092;8.516;2023-08-12T11:40:56;5.20;;;4.70;;
12155;SDS011;6141;49.092;8.516;2023-08-12T11:43:24;5.83;;;4.60;;
12155;SDS011;6141;49.092;8.516;2023-08-12T11:45:54;6.17;;;4.67;;
12155;SDS011;6141;49.092;8.516;2023-08-12T11:48:23;4.53;;;4.00;;
12155;SDS011;6141;49.092;8.516;2023-08-12T11:50:51;6.53;;;4.27;;
12155;SDS011;6141;49.092;8.516;2023-08-12T11:53:29;5.47;;;4.97;;
12155;SDS011;6141;49.092;8.516;2023-08-12T11:55:57;6.87;;;4.97;;
12155;SDS011;6141;49.092;8.516;2023-08-12T11:58:25;5.63;;;4.60;;
12155;SDS011;6141;49.092;8.516;2023-08-12T12:01:09;5.67;;;4.60;;
12155;SDS011;6141;49.092;8.516;2023-08-12T12:03:38;6.30;;;4.67;;
12155;SDS011;6141;49.092;8.516;2023-08-12T12:06:06;6.37;;;4.60;;
12155;SDS011;6141;49.092;8.516;2023-08-12T12:08:35;6.00;;;4.70;;
12155;SDS011;6141;49.092;8.516;2023-08-12T12:11:04;6.50;;;5.07;;
12155;SDS011;6141;49.092;8.516;2023-08-12T12:13:34;5.90;;;4.27;;
12155;SDS011;6141;49.092;8.516;2023-08-12T12:16:02;4.87;;;4.47;;
12155;SDS011;6141;49.092;8.516;2023-08-12T12:18:31;5.10;;;4.17;;
12155;SDS011;6141;49.092;8.516;2023-08-12T12:20:59;4.20;;;3.60;;
12155;SDS011;6141;49.092;8.516;2023-08-12T12:23:27;12.47;;;4.10;;
12155;SDS011;6141;49.092;8.516;2023-08-12T12:25:58;4.53;;;3.43;;
12155;SDS011;6141;49.092;8.516;2023-08-12T12:28:28;7.37;;;3.50;;
12155;SDS011;6141;49.092;8.516;2023-08-12T12:30:56;3.90;;;3.50;;
12155;SDS011;6141;49.092;8.516;2023-08-12T12:33:24;5.20;;;3.40;;
12155;SDS011;6141;49.092;8.516;2023-08-12T12:35:53;3.10;;;2.80;;
12155;SDS011;6141;49.092;8.516;2023-08-12T12:38:27;3.63;;;3.23;;
12155;SDS011;6141;49.092;8.516;2023-08-12T12:40:55;4.50;;;3.60;;
12155;SDS011;6141;49.092;8.516;2023-08-12T12:43:24;5.93;;;3.47;;
12155;SDS011;6141;49.092;8.516;2023-08-12T12:45:53;5.10;;;3.27;;
12155;SDS011;6141;49.092;8.516;2023-08-12T12:48:21;4.30;;;3.00;;
12155;SDS011;6141;49.092;8.516;2023-08-12T12:50:49;4.20;;;2.80;;
12155;SDS011;6141;49.092;8.516;2023-08-12T12:53:17;3.28;;;2.97;;
12155;SDS011;6141;49.092;8.516;2023-08-12T12:55:45;5.23;;;2.97;;
12155;SDS011;6141;49.092;8.516;2023-08-12T12:58:13;3.67;;;3.10;;
12155;SDS011;6141;49.092;8.516;2023-08-12T13:00:44;4.60;;;2.77;;
12155;SDS011;6141;49.092;8.516;2023-08-12T13:03:12;3.07;;;2.77;;
12155;SDS011;6141;49.092;8.516;2023-08-12T13:05:40;4.30;;;3.00;;
12155;SDS011;6141;49.092;8.516;2023-08-12T13:08:08;4.87;;;2.87;;
12155;SDS011;6141;49.092;8.516;2023-08-12T13:10:36;3.47;;;2.60;;
12155;SDS011;6141;49.092;8.516;2023-08-12T13:13:04;4.47;;;2.97;;
12155;SDS011;6141;49.092;8.516;2023-08-12T13:15:32;3.50;;;3.20;;
12155;SDS011;6141;49.092;8.516;2023-08-12T13:18:02;6.63;;;3.10;;
12155;SDS011;6141;49.092;8.516;2023-08-12T13:20:30;3.75;;;2.97;;
12155;SDS011;6141;49.092;8.516;2023-08-12T13:22:58;3.45;;;3.03;;
12155;SDS011;6141;49.092;8.516;2023-08-12T13:25:27;3.85;;;2.90;;
12155;SDS011;6141;49.092;8.516;2023-08-12T13:27:56;3.53;;;3.10;;
12155;SDS011;6141;49.092;8.516;2023-08-12T13:30:25;4.70;;;3.20;;
12155;SDS011;6141;49.092;8.516;2023-08-12T13:32:53;3.38;;;3.08;;
12155;SDS011;6141;49.092;8.516;2023-08-12T13:35:26;4.60;;;3.40;;
12155;SDS011;6141;49.092;8.516;2023-08-12T13:37:54;3.38;;;3.08;;
12155;SDS011;6141;49.092;8.516;2023-08-12T13:40:22;3.30;;;3.00;;
12155;SDS011;6141;49.092;8.516;2023-08-12T13:42:51;4.00;;;3.60;;
12155;SDS011;6141;49.092;8.516;2023-08-12T13:45:19;4.73;;;3.03;;
12155;SDS011;6141;49.092;8.516;2023-08-12T13:47:47;3.63;;;3.00;;
12155;SDS011;6141;49.092;8.516;2023-08-12T13:50:17;3.10;;;2.90;;
12155;SDS011;6141;49.092;8.516;2023-08-12T13:52:46;2.70;;;2.50;;
12155;SDS011;6141;49.092;8.516;2023-08-12T13:55:15;3.33;;;3.03;;
12155;SDS011;6141;49.092;8.516;2023-08-12T13:57:44;4.83;;;3.40;;
12155;SDS011;6141;49.092;8.516;2023-08-12T14:00:12;4.43;;;3.07;;
12155;SDS011;6141;49.092;8.516;2023-08-12T14:02:42;4.93;;;3.37;;
12155;SDS011;6141;49.092;8.516;2023-08-12T14:05:10;4.57;;;3.50;;
12155;SDS011;6141;49.092;8.516;2023-08-12T14:07:39;3.80;;;3.13;;
12155;SDS011;6141;49.092;8.516;2023-08-12T14:10:08;7.33;;;3.40;;
12155;SDS011;6141;49.092;8.516;2023-08-12T14:12:36;4.77;;;3.50;;
12155;SDS011;6141;49.092;8.516;2023-08-12T14:15:05;4.47;;;3.50;;
12155;SDS011;6141;49.092;8.516;2023-08-12T14:17:33;3.70;;;3.10;;
12155;SDS011;6141;49.092;8.516;2023-08-12T14:20:02;3.50;;;3.20;;
12155;SDS011;6141;49.092;8.516;2023-08-12T14:22:34;4.20;;;3.33;;
12155;SDS011;6141;49.092;8.516;2023-08-12T14:25:02;5.07;;;3.77;;
12155;SDS011;6141;49.092;8.516;2023-08-12T14:27:33;5.63;;;3.57;;
12155;SDS011;6141;49.092;8.516;2023-08-12T14:30:01;7.17;;;3.80;;
12155;SDS011;6141;49.092;8.516;2023-08-12T14:32:29;5.63;;;3.83;;
12155;SDS011;6141;49.092;8.516;2023-08-12T14:34:57;4.27;;;3.87;;
12155;SDS011;6141;49.092;8.516;2023-08-12T14:37:25;4.43;;;3.53;;
12155;SDS011;6141;49.092;8.516;2023-08-12T14:39:55;4.93;;;4.00;;
12155;SDS011;6141;49.092;8.516;2023-08-12T14:42:23;4.53;;;3.67;;
12155;SDS011;6141;49.092;8.516;2023-08-12T14:44:53;5.83;;;3.77;;
12155;SDS011;6141;49.092;8.516;2023-08-12T14:47:21;5.30;;;3.87;;
12155;SDS011;6141;49.092;8.516;2023-08-12T14:49:50;5.20;;;3.80;;
12155;SDS011;6141;49.092;8.516;2023-08-12T14:52:20;7.33;;;4.23;;
12155;SDS011;6141;49.092;8.516;2023-08-12T14:54:48;7.57;;;4.23;;
12155;SDS011;6141;49.092;8.516;2023-08-12T14:57:17;7.17;;;3.83;;
12155;SDS011;6141;49.092;8.516;2023-08-12T14:59:45;8.37;;;4.37;;
12155;SDS011;6141;49.092;8.516;2023-08-12T15:02:19;7.40;;;4.90;;
12155;SDS011;6141;49.092;8.516;2023-08-12T15:04:48;7.47;;;4.67;;
12155;SDS011;6141;49.092;8.516;2023-08-12T15:07:17;5.30;;;4.40;;
12155;SDS011;6141;49.092;8.516;2023-08-12T15:09:46;7.87;;;4.43;;
12155;SDS011;6141;49.092;8.516;2023-08-12T15:12:14;7.43;;;4.00;;
12155;SDS011;6141;49.092;8.516;2023-08-12T15:14:42;5.97;;;4.47;;